AddedLatest Added eBooks:

  1. 2021-12-06Family For Christmas 2015 1080p WEBRip x265-RARBG
  2. 2021-12-06BeLight Art Text 4.1.1 macOS
  3. 2021-12-06Operation Christmas List 2016 1080p WEBRip x265-RARBG
  4. 2021-12-0610 Horas Para O Natal 2020 PORTUGUESE 1080p WEBRip x265-VXT
  5. 2021-12-06FastScripts 3.0.3 macOS
  6. 2021-12-06RUMBLE GARANNDOLL S01E09 720p HEVC x265-MeGusta
  7. 2021-12-06Live Home 3D Pro Edition 4.2.1 macOS
  8. 2021-12-06Anadina 2017 SPANISH 1080p WEBRip x265-VXT
  9. 2021-12-06Christmas Under the Stars 2019 1080p WEBRip x265-RARBG
  10. 2021-12-06Dead Over Heels An Aurora Teagarden Mystery 2017 1080p WEBRip x265-RARBG
  11. 2021-12-06GoodNotes 5.7.52 macOS
  12. 2021-12-06Mistletoe Mixup 2021 1080p WEBRip x265-RARBG
  13. 2021-12-06Total Control S02E05 1080p HEVC x265-MeGusta
  14. 2021-12-06Dune 2021 2160p 10bit HDR DV BluRay 8CH x265 HEVC-PSA - Removed
  15. 2021-12-06The Last Duel 2021 720p 10bit BluRay 6CH x265 HEVC-PSA - Removed
  16. 2021-12-06Passion-HD - Haley Spades - Flexible Position
  17. 2021-12-06The Wishing Tree 2021 1080p WEBRip 1400MB DD5 1 x264-GalaxyRG
  18. 2021-12-06Maya and Her Lover 2021 1080p WEBRip 1400MB DD2 0 x264-GalaxyRG
  19. 2021-12-06Zero to Hero React JS mastery E-degree course
  20. 2021-12-06VR Development Fundamentals With Oculus Quest 2 And Unity
  21. 2021-12-06Vue Practical Guide w/ Composition API, Router, build 4 apps (Updated 11/2021)
  22. 2021-12-06Android 12 Jetpack Compose Developer Course - From 0 To Hero
  23. 2021-12-06IT Systems Business Analysis and ICT Industry Innovations
  24. 2021-12-06Judy Justice S01E32 1080p HEVC x265-MeGusta
  25. 2021-12-06BeLight Art Text 4.1.1 Multilingual macOS
  26. 2021-12-06Chaos Vantage 1.6.0 (x64)
  27. 2021-12-06Remote Desktop Manager Enterprise 2021.2.25 (x64) Multilingual
  28. 2021-12-06ToonTrack Superior Drummer v3.2.7 Update WiN
  29. 2021-12-06Yate 6.7 macOS
  30. 2021-12-06Weekly Playboy Japan N07 2010
  31. 2021-12-06WWE NXT Wargames 2021 720p WEB H264-DARKSPORT - Removed
  32. 2021-12-06Score Magazine 2011 03
  33. 2021-12-06Aurora Teagarden Mysteries Heist and Seek 2020 1080p AMZN WEBRip DDP2 0 x264-PLiSSKEN
  34. 2021-12-06Score Voluptuous 2013 03
  35. 2021-12-06American Daughter 1995 RUSSIAN 1080p WEBRip x265-VXT
  36. 2021-12-06Playboy Slovenia 2017 09
  37. 2021-12-06Playboy Slovenia Julij 2016
  38. 2021-12-06Jingle Bell Princess 2021 1080p PCOK WEBRip DDP5 1 x264-NTb
  39. by Rick Robinson / 2021-12-06A Fish Ate My Homework: A Beginner's Guide to Fly Fishing
  40. 2021-12-06Playboys Playmate Review 2011
  41. 2021-12-06Score XL Girls SP247
  42. 2021-12-06PSLVN 17 01
  43. 2021-12-06Playboys Book Of Lingerie 1990 01 02
  44. 2021-12-06Playboy Slovenia March 2016
  45. 2021-12-06Micrographics Duct Pro version 8.0.1.0 (x64)
  46. 2021-12-06Playboy Slovenia April 2016
  47. 2021-12-06QPmag - September 2021
  48. 2021-12-06Playboys College Girls 2009 01 02
  49. 2021-12-06The Wishing Tree 2021 1080p WEBRip DD5 1 x264-NOGRP
  50. 2021-12-06Playboys Sexy Girls 2011 11
  51. 2021-12-06Playboys College Girls 2010 01 02
  52. by Meir H. Kryger MD. FRCPC / 2021-12-06Principles and Practice of Sleep Medicine - 2 Volume Set 7th Edition
  53. 2021-12-06Maya and Her Lover 2021 1080p WEBRip AAC2 0 x264-NOGRP
  54. 2021-12-06Purely 18 2014 10
  55. 2021-12-06Playboy Special Edition 2015
  56. 2021-12-06Score Magazine 2009 04
  57. 2021-12-06Playboys Book Of Lingerie 1991 07 08
  58. 2021-12-06Playboys Voluptuous Vixens 2010 02 03
  59. 2021-12-06Score Magazine 2010 12
  60. 2021-12-06Striking Magazine - No. 56 2021
  61. 2021-12-06Playboys Book Of Lingerie 1991 05 06
  62. 2021-12-06STRIPLV Magazine - November 2021
  63. 2021-12-06Score XL Girls SP241
  64. 2021-12-06Playboys Playmates In Bed 2000
  65. 2021-12-06Shirley Of Hollywood Hot Lingerie and Stockings Collection - Catalog 2021
  66. 2021-12-06Playboys Nude Playmates 2002
  67. 2021-12-06MAGIX Movie Edit Pro 2022 Premium 21.0.1.107 Multilingual
  68. 2021-12-06Veritas Backup Exec 21.4.1200.2536 (x64) Multilingual
  69. 2021-12-06Phlearn - 30 days Photoshop
  70. 2021-12-06Jamie Oliver Together S01E06 1080p HEVC x265-MeGusta
  71. 2021-12-06MAGIX Photostory 2022 Deluxe 21.0.1.91 Multilingual
  72. 2021-12-06Renault Can Clip 212 Multilingual
  73. 2021-12-06UVI - Ether Fields v.1.0.1 (UVI Falcon) - Removed
  74. 2021-12-06UVI - UVX80 (UVI Falcon) - Removed
  75. 2021-12-06UVI - UVX670 v.1.0.2 (UVI Falcon) - Removed
  76. 2021-12-06Microsoft Office 2021 LTSC Version 2108 Build 14332.20176 x86/x64 English Preactivated
  77. 2021-12-06iPixSoft Video to HTML5 Converter v3.6.0 Portable
  78. 2021-12-06Backuptrans Android iPhone Line Transfer Plus 3.1.85 (x64) Portable
  79. 2021-12-06Shaun The Sheep The Flight Before Christmas 2021 1080p WEB h264-RUMOUR
  80. 2021-12-06One Last Time An Evening with Tony Bennett and Lady Gaga 2021 720p WEB h264-KOGi
  81. 2021-12-06Altium Designer 21.9.2 Build 33 (x64)
  82. 2021-12-06Strictly Come Dancing S19E22 The Results 1080p HEVC x265-MeGusta
  83. 2021-12-06One Last Time An Evening with Tony Bennett and Lady Gaga 2021 1080p WEB h264-KOGi
  84. 2021-12-06Modern Marvels S22E02 Top Toys and Games 720p HEVC x265-MeGusta
  85. 2021-12-06AKVIS 2021.11 (x64) Portable
  86. 2021-12-06Using English Expressions for Real Life: Stepping Stones to Fluency for Advanced ESL Learners
  87. 2021-12-06Legends of the Hidden Temple 2021 S01E08 720p HEVC x265-MeGusta
  88. 2021-12-06The Osbournes Want to Believe S02E16 Running Out of Time 720p HEVC x265-MeGusta
  89. 2021-12-0690 Day Fiance The Other Way S03E15 Tell All 720p HEVC x265-MeGusta
  90. 2021-12-06Magix Sound Forge Audio Cleaning Lab 4 v26.0.0.23
  91. 2021-12-06CBT Cognitive Behavior Life Coach Certification: Accredited
  92. 2021-12-06Barefoot Contessa S29E06 Modern Comfort Food Bake It Delicious 720p HEVC x265-MeGusta
  93. 2021-12-06Macsome Amazon Music Downloader 2.5.1 Multilingual Portable
  94. 2021-12-06ThunderSoft GIF to Video Converter V4.1.0
  95. 2021-12-06Homestead Rescue S09E07 It Takes a Village 720p HEVC x265-MeGusta
  96. 2021-12-06Abelssoft Recordify 2022 v7.02 Multilingual
  97. 2021-12-06The Handler 2021 1080p WEBRip x264-RARBG
  98. 2021-12-06BS.Player Pro 2.77 Build 1092 Multilingual
  99. 2021-12-06Calendarscope 12.0.2.1

More eBooks ...

52496 pages, 5249583 eBooks in total, list all pages->

Search free ebooks in ebookee.com!
Back to Top